createdAt,value
2019-03-12T00:00:06.569Z,5.37
2019-03-12T00:01:06.584Z,5.54
2019-03-12T00:02:06.602Z,5.44
2019-03-12T00:03:06.640Z,5.49
2019-03-12T00:04:06.709Z,5.43
2019-03-12T00:05:06.656Z,5.46
2019-03-12T00:06:06.670Z,5.47
2019-03-12T00:07:06.690Z,5.49
2019-03-12T00:08:06.716Z,5.52
2019-03-12T00:09:06.737Z,5.38
2019-03-12T00:10:06.762Z,5.44
2019-03-12T00:11:06.774Z,5.38
2019-03-12T00:12:06.793Z,5.46
2019-03-12T00:13:06.813Z,5.54
2019-03-12T00:14:06.825Z,5.44
2019-03-12T00:15:06.847Z,5.47
2019-03-12T00:16:06.869Z,5.37
2019-03-12T00:17:06.886Z,5.38
2019-03-12T00:18:06.906Z,5.40
2019-03-12T00:19:06.944Z,5.37
2019-03-12T00:20:06.941Z,5.33
2019-03-12T00:21:06.966Z,5.41
2019-03-12T00:22:06.971Z,5.51
2019-03-12T00:23:06.997Z,5.22
2019-03-12T00:24:07.015Z,5.31
2019-03-12T00:25:07.039Z,5.34
2019-03-12T00:26:07.053Z,5.26
2019-03-12T00:27:07.072Z,5.31
2019-03-12T00:28:07.096Z,5.31
2019-03-12T00:29:07.108Z,5.23
2019-03-12T00:30:07.133Z,5.34
2019-03-12T00:31:07.150Z,5.26
2019-03-12T00:32:07.207Z,5.15
2019-03-12T00:33:07.180Z,5.10
2019-03-12T00:34:07.207Z,5.19
2019-03-12T00:35:07.226Z,5.23
2019-03-12T00:36:07.243Z,5.22
2019-03-12T00:37:07.267Z,5.16
2019-03-12T00:38:07.289Z,5.26
2019-03-12T00:39:07.401Z,5.19
2019-03-12T00:40:07.314Z,5.19
2019-03-12T00:41:07.338Z,5.10
2019-03-12T00:42:07.355Z,5.01
2019-03-12T00:43:07.373Z,4.92
2019-03-12T00:44:07.387Z,5.10
2019-03-12T00:45:07.414Z,4.98
2019-03-12T00:46:07.428Z,4.97
2019-03-12T00:47:07.448Z,5.02
2019-03-12T00:48:07.473Z,5.04
2019-03-12T00:49:07.490Z,4.95
2019-03-12T00:50:07.499Z,5.00
2019-03-12T00:51:07.540Z,5.07
2019-03-12T00:52:07.543Z,4.98
2019-03-12T00:53:07.564Z,5.00
2019-03-12T00:54:07.589Z,5.07
2019-03-12T00:55:07.604Z,5.01
2019-03-12T00:56:07.617Z,4.92
2019-03-12T00:57:07.638Z,4.98
2019-03-12T00:58:07.664Z,5.05
2019-03-12T00:59:07.679Z,4.86
2019-03-12T01:00:07.708Z,4.97
2019-03-12T01:01:07.715Z,4.87
2019-03-12T01:02:07.733Z,4.98
2019-03-12T01:03:07.756Z,4.92
2019-03-12T01:04:07.793Z,4.95
2019-03-12T01:05:07.797Z,4.95
2019-03-12T01:06:07.804Z,4.98
2019-03-12T01:07:07.825Z,4.98
2019-03-12T01:08:07.841Z,4.98
2019-03-12T01:09:07.865Z,4.83
2019-03-12T01:10:07.888Z,4.87
2019-03-12T01:11:07.899Z,4.87
2019-03-12T01:12:07.917Z,4.84
2019-03-12T01:13:07.932Z,4.86
2019-03-12T01:14:07.954Z,4.94
2019-03-12T01:15:07.991Z,5.00
2019-03-12T01:16:08.001Z,4.95
2019-03-12T01:17:08.006Z,5.04
2019-03-12T01:18:08.029Z,4.95
2019-03-12T01:19:08.047Z,4.87
2019-03-12T01:20:08.064Z,4.90
2019-03-12T01:21:08.079Z,4.92
2019-03-12T01:22:08.099Z,4.97
2019-03-12T01:23:08.123Z,5.01
2019-03-12T01:24:08.139Z,5.04
2019-03-12T01:25:08.158Z,4.95
2019-03-12T01:26:08.229Z,4.92
2019-03-12T01:27:08.200Z,4.98
2019-03-12T01:28:08.222Z,5.00
2019-03-12T01:29:08.229Z,4.90
2019-03-12T01:30:08.252Z,4.97
2019-03-12T01:31:08.273Z,4.92
2019-03-12T01:32:08.285Z,4.97
2019-03-12T01:33:08.304Z,4.95
2019-03-12T01:34:08.334Z,4.92
2019-03-12T01:35:08.341Z,4.98
2019-03-12T01:36:08.365Z,4.98
2019-03-12T01:37:08.380Z,5.12
2019-03-12T01:38:08.526Z,5.08
2019-03-12T01:39:08.426Z,5.22
2019-03-12T01:40:08.433Z,5.08
2019-03-12T01:41:08.453Z,5.08
2019-03-12T01:42:08.471Z,5.10
2019-03-12T01:43:08.491Z,5.02
2019-03-12T01:44:08.509Z,4.97
2019-03-12T01:45:08.532Z,5.00
2019-03-12T01:46:08.552Z,5.04
2019-03-12T01:47:08.566Z,5.07
2019-03-12T01:48:08.599Z,5.10
2019-03-12T01:49:08.597Z,5.20
2019-03-12T01:50:08.622Z,5.23
2019-03-12T01:51:08.641Z,5.23
2019-03-12T01:52:08.663Z,5.26
2019-03-12T01:53:08.675Z,5.18
2019-03-12T01:54:08.696Z,5.15
2019-03-12T01:55:08.715Z,5.19
2019-03-12T01:56:08.736Z,5.13
2019-03-12T01:57:08.748Z,5.20
2019-03-12T01:58:08.776Z,5.15
2019-03-12T01:59:08.783Z,5.33
2019-03-12T02:00:08.804Z,5.23
2019-03-12T02:01:08.828Z,5.29
2019-03-12T02:02:08.840Z,5.31
2019-03-12T02:03:08.884Z,5.34
2019-03-12T02:04:08.878Z,5.26
2019-03-12T02:05:08.904Z,5.26
2019-03-12T02:06:08.919Z,5.22
2019-03-12T02:07:08.943Z,5.19
2019-03-12T02:08:08.949Z,5.26
2019-03-12T02:09:08.979Z,5.16
2019-03-12T02:10:08.990Z,5.28
2019-03-12T02:11:09.011Z,5.31
2019-03-12T02:12:09.028Z,5.26
2019-03-12T02:13:09.050Z,5.25
2019-03-12T02:14:09.067Z,5.38
2019-03-12T02:15:09.083Z,5.38
2019-03-12T02:16:09.102Z,5.29
2019-03-12T02:17:09.122Z,5.37
2019-03-12T02:18:09.145Z,5.29
2019-03-12T02:19:09.157Z,5.34
2019-03-12T02:20:09.177Z,5.33
2019-03-12T02:21:09.197Z,5.26
2019-03-12T02:22:09.248Z,5.33
2019-03-12T02:23:09.236Z,5.31
2019-03-12T02:24:09.257Z,5.28
2019-03-12T02:25:09.277Z,5.22
2019-03-12T02:26:09.305Z,5.36
2019-03-12T02:27:09.314Z,5.29
2019-03-12T02:28:09.331Z,5.33
2019-03-12T02:29:09.355Z,5.36
2019-03-12T02:30:09.361Z,5.29
2019-03-12T02:31:09.386Z,5.33
2019-03-12T02:32:09.410Z,5.31
2019-03-12T02:33:09.423Z,5.29
2019-03-12T02:34:09.439Z,5.26
2019-03-12T02:35:09.458Z,5.25
2019-03-12T02:36:09.532Z,5.31
2019-03-12T02:37:09.492Z,5.31
2019-03-12T02:38:09.621Z,5.29
2019-03-12T02:39:09.537Z,5.33
2019-03-12T02:40:09.551Z,5.37
2019-03-12T02:41:09.573Z,5.40
2019-03-12T02:42:12.653Z,5.41
2019-03-12T02:43:09.622Z,5.31
2019-03-12T02:44:09.655Z,5.31
2019-03-12T02:45:09.644Z,5.33
2019-03-12T02:46:09.668Z,5.36
2019-03-12T02:47:09.681Z,5.29
2019-03-12T02:48:09.711Z,5.36
2019-03-12T02:49:10.396Z,5.29
2019-03-12T02:50:09.734Z,5.34
2019-03-12T02:51:09.765Z,5.37
2019-03-12T02:52:09.789Z,5.40
2019-03-12T02:53:09.787Z,5.40
2019-03-12T02:54:09.816Z,5.41
2019-03-12T02:55:09.832Z,5.40
2019-03-12T02:56:09.845Z,5.33
2019-03-12T02:57:09.863Z,5.33
2019-03-12T02:58:09.886Z,5.37
2019-03-12T02:59:09.900Z,5.34
2019-03-12T03:00:09.921Z,5.36
2019-03-12T03:01:09.941Z,5.29
2019-03-12T03:02:09.957Z,5.33
2019-03-12T03:03:09.974Z,5.29
2019-03-12T03:04:09.998Z,5.47
2019-03-12T03:05:10.015Z,5.43
2019-03-12T03:06:10.030Z,5.40
2019-03-12T03:07:10.056Z,5.40
2019-03-12T03:08:10.073Z,5.38
2019-03-12T03:09:10.090Z,5.38
2019-03-12T03:10:10.108Z,5.37
2019-03-12T03:11:10.121Z,5.44
2019-03-12T03:12:10.145Z,5.46
2019-03-12T03:13:10.159Z,5.47
2019-03-12T03:14:10.183Z,5.44
2019-03-12T03:15:10.201Z,5.36
2019-03-12T03:16:10.222Z,5.40
2019-03-12T03:17:10.231Z,5.41
2019-03-12T03:18:10.252Z,5.37
2019-03-12T03:19:10.271Z,5.37
2019-03-12T03:20:10.311Z,5.43
2019-03-12T03:21:10.317Z,5.43
2019-03-12T03:22:10.329Z,5.41
2019-03-12T03:23:10.343Z,5.33
2019-03-12T03:24:10.369Z,5.47
2019-03-12T03:25:10.389Z,5.40
2019-03-12T03:26:10.403Z,5.41
2019-03-12T03:27:10.423Z,5.40
2019-03-12T03:28:10.452Z,5.40
2019-03-12T03:29:10.469Z,5.41
2019-03-12T03:30:10.481Z,5.33
2019-03-12T03:31:10.495Z,5.41
2019-03-12T03:32:10.516Z,5.40
2019-03-12T03:33:10.559Z,5.38
2019-03-12T03:34:10.559Z,5.40
2019-03-12T03:35:10.566Z,5.44
2019-03-12T03:36:10.588Z,5.49
2019-03-12T03:37:10.620Z,5.41
2019-03-12T03:38:10.630Z,5.36
2019-03-12T03:39:10.643Z,5.34
2019-03-12T03:40:10.667Z,5.40
2019-03-12T03:41:10.677Z,5.37
2019-03-12T03:42:10.698Z,5.40
2019-03-12T03:43:10.729Z,5.31
2019-03-12T03:44:10.731Z,5.31
2019-03-12T03:45:10.765Z,5.28
2019-03-12T03:46:10.772Z,5.26
2019-03-12T03:47:10.797Z,5.34
2019-03-12T03:48:10.809Z,5.31
2019-03-12T03:49:10.823Z,5.41
2019-03-12T03:50:10.849Z,5.46
2019-03-12T03:51:10.868Z,5.49
2019-03-12T03:52:10.890Z,5.52
2019-03-12T03:53:10.897Z,5.36
2019-03-12T03:54:10.944Z,5.46
2019-03-12T03:55:10.944Z,5.41
2019-03-12T03:56:10.959Z,5.41
2019-03-12T03:57:10.978Z,5.43
2019-03-12T03:58:10.993Z,5.41
2019-03-12T03:59:11.035Z,5.44
2019-03-12T04:00:11.055Z,5.47
2019-03-12T04:01:11.053Z,5.38
2019-03-12T04:02:11.066Z,5.49
2019-03-12T04:03:11.083Z,5.44
2019-03-12T04:04:11.105Z,5.49
2019-03-12T04:05:11.142Z,5.47
2019-03-12T04:06:11.143Z,5.47
2019-03-12T04:07:11.186Z,5.47
2019-03-12T04:08:11.183Z,5.49
2019-03-12T04:09:11.202Z,5.51
2019-03-12T04:10:11.231Z,5.44
2019-03-12T04:11:11.239Z,5.51
2019-03-12T04:12:11.288Z,5.54
2019-03-12T04:13:11.271Z,5.47
2019-03-12T04:14:11.294Z,5.47
2019-03-12T04:15:11.314Z,5.47
2019-03-12T04:16:11.332Z,5.49
2019-03-12T04:17:11.348Z,5.54
2019-03-12T04:18:11.362Z,5.56
2019-03-12T04:19:11.387Z,5.52
2019-03-12T04:20:11.469Z,5.51
2019-03-12T04:21:11.423Z,5.46
2019-03-12T04:22:11.461Z,5.49
2019-03-12T04:23:11.519Z,5.47
2019-03-12T04:24:11.479Z,5.51
2019-03-12T04:25:11.496Z,5.55
2019-03-12T04:26:11.512Z,5.51
2019-03-12T04:27:11.531Z,5.44
2019-03-12T04:28:11.551Z,5.44
2019-03-12T04:29:11.567Z,5.46
2019-03-12T04:30:11.586Z,5.52
2019-03-12T04:31:11.610Z,5.52
2019-03-12T04:32:11.624Z,5.59
2019-03-12T04:33:11.646Z,5.65
2019-03-12T04:34:11.693Z,5.51
2019-03-12T04:35:11.720Z,5.54
2019-03-12T04:36:11.698Z,5.54
2019-03-12T04:37:11.720Z,5.51
2019-03-12T04:38:11.970Z,5.46
2019-03-12T04:39:11.754Z,5.59
2019-03-12T04:40:11.782Z,5.54
2019-03-12T04:41:11.797Z,5.62
2019-03-12T04:42:11.812Z,5.54
2019-03-12T04:43:11.834Z,5.54
2019-03-12T04:44:11.872Z,5.54
2019-03-12T04:45:11.864Z,5.46
2019-03-12T04:46:11.887Z,5.56
2019-03-12T04:47:11.900Z,5.51
2019-03-12T04:48:11.926Z,5.51
2019-03-12T04:49:11.943Z,5.58
2019-03-12T04:50:11.962Z,5.55
2019-03-12T04:51:11.978Z,5.54
2019-03-12T04:52:12.001Z,5.54
2019-03-12T04:53:12.012Z,5.54
2019-03-12T04:54:12.035Z,5.58
2019-03-12T04:55:12.059Z,5.62
2019-03-12T04:56:12.073Z,5.56
2019-03-12T04:57:12.093Z,5.55
2019-03-12T04:58:12.112Z,5.56
2019-03-12T04:59:12.132Z,5.55
2019-03-12T05:00:12.143Z,5.61
2019-03-12T05:01:12.166Z,5.64
2019-03-12T05:02:12.186Z,5.64
2019-03-12T05:03:12.205Z,5.69
2019-03-12T05:04:12.223Z,5.62
2019-03-12T05:05:12.241Z,5.59
2019-03-12T05:06:12.256Z,5.56
2019-03-12T05:07:12.278Z,5.51
2019-03-12T05:08:12.293Z,5.59
2019-03-12T05:09:12.318Z,5.62
2019-03-12T05:10:12.330Z,5.58
2019-03-12T05:11:12.355Z,5.52
2019-03-12T05:12:12.375Z,5.58
2019-03-12T05:13:12.392Z,5.54
2019-03-12T05:14:12.406Z,5.49
2019-03-12T05:15:12.424Z,5.61
2019-03-12T05:16:12.444Z,5.62
2019-03-12T05:17:12.468Z,5.55
2019-03-12T05:18:12.478Z,5.55
2019-03-12T05:19:12.504Z,5.61
2019-03-12T05:20:12.518Z,5.55
2019-03-12T05:21:12.537Z,5.64
2019-03-12T05:22:12.563Z,5.62
2019-03-12T05:23:12.577Z,5.65
2019-03-12T05:24:12.641Z,5.61
2019-03-12T05:25:12.611Z,5.54
2019-03-12T05:26:12.645Z,5.67
2019-03-12T05:27:12.647Z,5.62
2019-03-12T05:28:12.669Z,5.62
2019-03-12T05:29:12.685Z,5.62
2019-03-12T05:30:12.727Z,5.58
2019-03-12T05:31:12.724Z,5.59
2019-03-12T05:32:12.740Z,5.65
2019-03-12T05:33:12.766Z,5.61
2019-03-12T05:34:12.778Z,5.58
2019-03-12T05:35:12.795Z,5.58
2019-03-12T05:36:12.814Z,5.67
2019-03-12T05:37:12.877Z,5.65
2019-03-12T05:38:12.855Z,5.84
2019-03-12T05:39:12.881Z,5.70
2019-03-12T05:40:12.888Z,5.74
2019-03-12T05:41:12.909Z,5.70
2019-03-12T05:42:12.925Z,5.92
2019-03-12T05:43:12.945Z,5.62
2019-03-12T05:44:12.959Z,5.56
2019-03-12T05:45:12.989Z,5.54
2019-03-12T05:46:13.001Z,5.61
2019-03-12T05:47:13.019Z,5.62
2019-03-12T05:48:13.038Z,5.65
2019-03-12T05:49:13.057Z,5.67
2019-03-12T05:50:13.081Z,5.76
2019-03-12T05:51:13.111Z,5.65
2019-03-12T05:52:13.111Z,5.64
2019-03-12T05:53:13.134Z,5.64
2019-03-12T05:54:13.149Z,5.64
2019-03-12T05:55:13.177Z,5.67
2019-03-12T05:56:13.185Z,5.80
2019-03-12T05:57:13.212Z,5.87
2019-03-12T05:58:13.225Z,5.84
2019-03-12T05:59:13.242Z,5.69
2019-03-12T06:00:13.259Z,5.83
2019-03-12T06:01:13.284Z,5.74
2019-03-12T06:02:13.294Z,5.81
2019-03-12T06:03:13.328Z,5.72
2019-03-12T06:04:13.335Z,5.61
2019-03-12T06:05:13.357Z,5.72
2019-03-12T06:06:13.384Z,5.72
2019-03-12T06:07:13.394Z,5.83
2019-03-12T06:08:13.410Z,5.70
2019-03-12T06:09:13.432Z,5.80
2019-03-12T06:10:13.450Z,5.62
2019-03-12T06:11:13.471Z,5.67
2019-03-12T06:12:13.489Z,5.56
2019-03-12T06:13:13.501Z,5.70
2019-03-12T06:14:13.521Z,6.16
2019-03-12T06:15:13.553Z,6.36
2019-03-12T06:16:13.567Z,6.62
2019-03-12T06:17:13.580Z,5.95
2019-03-12T06:18:13.596Z,6.07
2019-03-12T06:19:13.613Z,6.22
2019-03-12T06:20:13.629Z,6.22
2019-03-12T06:21:13.652Z,6.20
2019-03-12T06:22:13.679Z,6.10
2019-03-12T06:23:15.251Z,5.83
2019-03-12T06:24:13.706Z,6.02
2019-03-12T06:25:13.773Z,5.95
2019-03-12T06:26:13.745Z,5.65
2019-03-12T06:27:13.774Z,5.64
2019-03-12T06:28:13.786Z,5.65
2019-03-12T06:29:13.795Z,5.64
2019-03-12T06:30:13.828Z,5.65
2019-03-12T06:31:13.842Z,5.62
2019-03-12T06:32:13.910Z,5.65
2019-03-12T06:33:13.886Z,5.65
2019-03-12T06:34:13.904Z,5.76
2019-03-12T06:35:13.912Z,5.69
2019-03-12T06:36:13.932Z,5.62
2019-03-12T06:37:13.951Z,5.64
2019-03-12T06:38:13.972Z,5.67
2019-03-12T06:39:13.987Z,5.64
2019-03-12T06:40:14.007Z,5.64
2019-03-12T06:41:14.026Z,5.72
2019-03-12T06:42:14.044Z,5.69
2019-03-12T06:43:14.065Z,5.67
2019-03-12T06:44:14.079Z,5.65
2019-03-12T06:45:14.098Z,5.64
2019-03-12T06:46:14.127Z,5.62
2019-03-12T06:47:14.134Z,5.64
2019-03-12T06:48:14.175Z,5.59
2019-03-12T06:49:14.173Z,5.69
2019-03-12T06:50:14.205Z,5.70
2019-03-12T06:51:14.217Z,5.77
2019-03-12T06:52:14.232Z,5.69
2019-03-12T06:53:14.258Z,5.67
2019-03-12T06:54:14.273Z,5.65
2019-03-12T06:55:14.294Z,5.59
2019-03-12T06:56:14.321Z,5.67
2019-03-12T06:57:14.329Z,5.80
2019-03-12T06:58:14.351Z,5.79
2019-03-12T06:59:14.360Z,5.81
2019-03-12T07:00:14.394Z,5.81
2019-03-12T07:01:14.406Z,5.83
2019-03-12T07:02:14.417Z,5.88
2019-03-12T07:03:14.442Z,5.83
2019-03-12T07:04:14.456Z,5.88
2019-03-12T07:05:14.490Z,5.87
2019-03-12T07:06:14.497Z,5.87
2019-03-12T07:07:17.025Z,5.80
2019-03-12T07:08:14.534Z,5.83
2019-03-12T07:09:14.553Z,5.81
2019-03-12T07:10:14.573Z,5.88
2019-03-12T07:11:14.587Z,5.90
2019-03-12T07:12:14.611Z,5.74
2019-03-12T07:13:14.628Z,5.73
2019-03-12T07:14:14.646Z,5.87
2019-03-12T07:15:14.669Z,5.87
2019-03-12T07:16:14.679Z,5.84
2019-03-12T07:17:14.700Z,5.84
2019-03-12T07:18:14.730Z,5.69
2019-03-12T07:19:14.738Z,5.77
2019-03-12T07:20:14.763Z,5.79
2019-03-12T07:21:14.784Z,5.67
2019-03-12T07:22:14.799Z,5.91
2019-03-12T07:23:14.820Z,5.81
2019-03-12T07:24:14.830Z,5.87
2019-03-12T07:25:14.845Z,5.87
2019-03-12T07:26:14.872Z,5.88
2019-03-12T07:27:14.889Z,5.83
2019-03-12T07:28:14.911Z,5.87
2019-03-12T07:29:14.926Z,5.80
2019-03-12T07:30:14.989Z,5.83
2019-03-12T07:31:15.000Z,5.94
2019-03-12T07:32:14.982Z,5.91
2019-03-12T07:33:15.007Z,5.94
2019-03-12T07:34:18.208Z,5.98
2019-03-12T07:35:15.051Z,5.95
2019-03-12T07:36:15.059Z,5.83
2019-03-12T07:37:15.086Z,5.90
2019-03-12T07:38:15.117Z,5.94
2019-03-12T07:39:15.124Z,5.79
2019-03-12T07:40:15.151Z,5.90
2019-03-12T07:41:26.421Z,5.91
2019-03-12T07:42:15.185Z,5.94
2019-03-12T07:43:15.195Z,5.94
2019-03-12T07:44:15.226Z,5.94
2019-03-12T07:45:15.242Z,6.01
2019-03-12T07:46:15.249Z,5.97
2019-03-12T07:47:15.271Z,5.97
2019-03-12T07:48:15.297Z,6.20
2019-03-12T07:49:15.323Z,6.28
2019-03-12T07:50:15.339Z,6.16
2019-03-12T07:51:15.346Z,6.09
2019-03-12T07:52:15.364Z,6.15
2019-03-12T07:53:15.383Z,6.25
2019-03-12T07:54:15.403Z,6.31
2019-03-12T07:55:15.430Z,6.46
2019-03-12T07:56:15.438Z,6.39
2019-03-12T07:57:15.467Z,6.41
2019-03-12T07:58:15.479Z,6.41
2019-03-12T07:59:15.505Z,6.34
2019-03-12T08:00:15.521Z,6.39
2019-03-12T08:01:15.627Z,6.38
2019-03-12T08:02:15.550Z,6.44
2019-03-12T08:03:15.573Z,6.36
2019-03-12T08:04:15.601Z,6.35
2019-03-12T08:05:15.620Z,6.44
2019-03-12T08:06:15.680Z,6.46
2019-03-12T08:07:15.714Z,6.38
2019-03-12T08:08:15.676Z,6.47
2019-03-12T08:09:15.712Z,6.43
2019-03-12T08:10:15.709Z,6.43
2019-03-12T08:11:15.737Z,6.52
2019-03-12T08:12:15.746Z,6.47
2019-03-12T08:13:15.767Z,6.41
2019-03-12T08:14:15.801Z,6.43
2019-03-12T08:15:23.088Z,6.36
2019-03-12T08:16:15.828Z,6.39
2019-03-12T08:17:15.847Z,6.31
2019-03-12T08:18:15.870Z,6.19
2019-03-12T08:19:15.880Z,6.17
2019-03-12T08:20:15.897Z,6.29
2019-03-12T08:21:22.322Z,6.26
2019-03-12T08:22:15.933Z,6.36
2019-03-12T08:23:15.986Z,6.36
2019-03-12T08:24:15.976Z,6.32
2019-03-12T08:25:16.035Z,6.43
2019-03-12T08:26:16.012Z,6.36
2019-03-12T08:27:16.037Z,6.43
2019-03-12T08:28:16.060Z,6.32
2019-03-12T08:29:16.074Z,6.34
2019-03-12T08:30:16.099Z,6.39
2019-03-12T08:31:16.123Z,6.35
2019-03-12T08:32:16.138Z,6.41
2019-03-12T08:33:16.149Z,6.46
2019-03-12T08:34:16.275Z,6.52
2019-03-12T08:35:16.198Z,6.47
2019-03-12T08:36:16.209Z,6.49
2019-03-12T08:37:16.228Z,6.56
2019-03-12T08:38:16.238Z,6.52
2019-03-12T08:39:16.261Z,6.71
2019-03-12T08:40:16.292Z,6.65
2019-03-12T08:41:16.309Z,6.60
2019-03-12T08:42:16.318Z,6.65
2019-03-12T08:43:16.335Z,6.65
2019-03-12T08:44:16.363Z,6.70
2019-03-12T08:45:16.608Z,6.67
2019-03-12T08:46:18.395Z,6.64
2019-03-12T08:47:16.417Z,6.65
2019-03-12T08:48:16.430Z,6.64
2019-03-12T08:49:16.455Z,6.68
2019-03-12T08:50:16.475Z,6.71
2019-03-12T08:51:16.490Z,6.64
2019-03-12T08:52:16.515Z,6.53
2019-03-12T08:53:16.532Z,6.67
2019-03-12T08:54:16.548Z,6.68
2019-03-12T08:55:16.574Z,6.54
2019-03-12T08:56:16.588Z,6.70
2019-03-12T08:57:16.603Z,6.68
2019-03-12T08:58:16.630Z,6.72
2019-03-12T08:59:16.644Z,6.68
2019-03-12T09:00:16.669Z,6.74
2019-03-12T09:01:16.705Z,6.70
2019-03-12T09:02:16.705Z,6.75
2019-03-12T09:03:16.719Z,6.75
2019-03-12T09:04:16.780Z,6.77
2019-03-12T09:05:16.764Z,6.86
2019-03-12T09:06:16.784Z,6.86
2019-03-12T09:07:16.804Z,6.90
2019-03-12T09:08:16.824Z,6.83
2019-03-12T09:09:16.839Z,6.72
2019-03-12T09:10:16.862Z,6.80
2019-03-12T09:11:16.878Z,6.83
2019-03-12T09:12:16.977Z,7.01
2019-03-12T09:13:16.917Z,7.04
2019-03-12T09:14:16.945Z,7.04
2019-03-12T09:15:16.959Z,7.11
2019-03-12T09:16:16.975Z,7.03
2019-03-12T09:17:16.996Z,7.08
2019-03-12T09:18:17.016Z,7.11
2019-03-12T09:19:17.036Z,7.05
2019-03-12T09:20:17.055Z,7.13
2019-03-12T09:21:17.075Z,7.15
2019-03-12T09:22:17.132Z,7.26
2019-03-12T09:23:17.116Z,7.32
2019-03-12T09:24:17.135Z,7.32
2019-03-12T09:25:17.152Z,7.37
2019-03-12T09:26:17.181Z,7.47
2019-03-12T09:27:17.195Z,7.44
2019-03-12T09:28:17.210Z,7.40
2019-03-12T09:29:17.233Z,7.43
2019-03-12T09:30:17.248Z,7.46
2019-03-12T09:31:17.271Z,7.39
2019-03-12T09:32:17.290Z,7.48
2019-03-12T09:33:17.308Z,7.43
2019-03-12T09:34:17.327Z,7.37
2019-03-12T09:35:17.352Z,7.11
2019-03-12T09:36:17.371Z,7.28
2019-03-12T09:37:17.398Z,7.25
2019-03-12T09:38:17.410Z,7.37
2019-03-12T09:39:17.440Z,7.50
2019-03-12T09:40:17.450Z,7.51
2019-03-12T09:41:17.466Z,7.72
2019-03-12T09:42:17.500Z,8.05
2019-03-12T09:43:17.515Z,8.90
2019-03-12T09:44:17.524Z,9.81
2019-03-12T09:45:17.555Z,10.28
2019-03-12T09:46:17.572Z,10.38
2019-03-12T09:47:17.596Z,10.46
2019-03-12T09:48:17.609Z,10.02
2019-03-12T09:49:17.630Z,9.76
2019-03-12T09:50:17.656Z,9.30
2019-03-12T09:51:17.676Z,9.27
2019-03-12T09:52:17.696Z,9.27
2019-03-12T09:53:17.715Z,9.40
2019-03-12T09:54:17.740Z,9.39
2019-03-12T09:55:17.753Z,9.21
2019-03-12T09:56:17.783Z,9.11
2019-03-12T09:57:17.803Z,9.15
2019-03-12T09:58:17.823Z,9.03
2019-03-12T09:59:17.844Z,9.13
2019-03-12T10:00:17.876Z,9.19
2019-03-12T10:01:17.892Z,9.05
2019-03-12T10:02:17.910Z,9.00
2019-03-12T10:03:17.935Z,9.31
2019-03-12T10:04:18.018Z,9.03
2019-03-12T10:05:17.983Z,8.97
2019-03-12T10:06:17.993Z,9.03
2019-03-12T10:07:18.019Z,8.86
2019-03-12T10:08:18.038Z,8.87
2019-03-12T10:09:18.073Z,8.72
2019-03-12T10:10:18.082Z,8.78
2019-03-12T10:11:18.104Z,8.72
2019-03-12T10:12:18.122Z,8.64
2019-03-12T10:13:18.149Z,8.56
2019-03-12T10:14:18.175Z,8.66
2019-03-12T10:15:18.198Z,8.59
2019-03-12T10:16:18.209Z,8.77
2019-03-12T10:17:18.236Z,8.72
2019-03-12T10:18:18.253Z,8.84
2019-03-12T10:19:18.277Z,8.87
2019-03-12T10:20:18.293Z,8.84
2019-03-12T10:21:18.330Z,8.87
2019-03-12T10:22:18.401Z,8.81
2019-03-12T10:23:18.365Z,9.00
2019-03-12T10:24:18.387Z,8.86
2019-03-12T10:25:18.414Z,8.87
2019-03-12T10:26:18.455Z,8.99
2019-03-12T10:27:18.459Z,9.19
2019-03-12T10:28:18.501Z,9.42
2019-03-12T10:29:18.509Z,9.49
2019-03-12T10:30:18.582Z,9.70
2019-03-12T10:31:18.589Z,9.87
2019-03-12T10:32:18.700Z,9.73
2019-03-12T10:33:18.579Z,9.51
2019-03-12T10:34:28.805Z,9.34
2019-03-12T10:35:18.623Z,9.36
2019-03-12T10:36:18.780Z,9.18
2019-03-12T10:37:18.677Z,9.12
2019-03-12T10:38:18.689Z,9.16
2019-03-12T10:39:18.713Z,9.33
2019-03-12T10:40:18.734Z,9.62
2019-03-12T10:41:18.749Z,9.99
2019-03-12T10:42:18.776Z,9.97
2019-03-12T10:43:18.792Z,10.02
2019-03-12T10:44:18.831Z,9.90
2019-03-12T10:45:18.837Z,10.06
2019-03-12T10:46:18.914Z,11.26
2019-03-12T10:47:18.909Z,11.76
2019-03-12T10:48:18.938Z,11.37
2019-03-12T10:49:18.938Z,11.19
2019-03-12T10:50:18.961Z,12.05
2019-03-12T10:51:18.984Z,12.58
2019-03-12T10:52:19.003Z,12.76
2019-03-12T10:53:19.021Z,13.42
2019-03-12T10:54:19.045Z,13.55
2019-03-12T10:55:19.081Z,14.13
2019-03-12T10:56:19.101Z,14.18
2019-03-12T10:57:21.468Z,14.13
2019-03-12T10:58:19.142Z,14.44
2019-03-12T10:59:19.180Z,15.37
2019-03-12T11:00:19.194Z,15.17
2019-03-12T11:01:19.222Z,15.14
2019-03-12T11:02:19.259Z,14.82
2019-03-12T11:03:19.286Z,13.95
2019-03-12T11:04:19.308Z,13.39
2019-03-12T11:05:19.329Z,13.60
2019-03-12T11:06:19.364Z,13.24
2019-03-12T11:07:19.397Z,14.08
2019-03-12T11:08:19.420Z,14.34
2019-03-12T11:09:19.437Z,14.66
2019-03-12T11:10:19.464Z,14.08
2019-03-12T11:11:19.493Z,13.37
2019-03-12T11:12:19.519Z,13.97
2019-03-12T11:13:19.553Z,14.20
2019-03-12T11:14:19.570Z,14.36
2019-03-12T11:15:19.604Z,14.37
2019-03-12T11:16:19.627Z,14.68
2019-03-12T11:17:19.662Z,14.82
2019-03-12T11:18:19.683Z,14.56
2019-03-12T11:19:19.742Z,14.30
2019-03-12T11:20:19.745Z,13.64
2019-03-12T11:21:19.768Z,13.57
2019-03-12T11:22:19.802Z,13.85
2019-03-12T11:23:19.834Z,14.33
2019-03-12T11:24:19.860Z,14.99
2019-03-12T11:25:27.311Z,15.47
2019-03-12T11:26:19.941Z,15.94
2019-03-12T11:27:19.953Z,14.97
2019-03-12T11:28:19.979Z,14.61
2019-03-12T11:29:20.008Z,14.15
2019-03-12T11:30:20.050Z,13.55
2019-03-12T11:31:20.078Z,13.13
2019-03-12T11:32:20.093Z,13.20
2019-03-12T11:33:20.158Z,13.31
2019-03-12T11:34:20.156Z,13.86
2019-03-12T11:35:20.183Z,13.67
2019-03-12T11:36:20.223Z,13.28
2019-03-12T11:37:20.258Z,13.05
2019-03-12T11:38:20.305Z,12.87
2019-03-12T11:39:20.305Z,12.65
2019-03-12T11:40:20.323Z,12.44
2019-03-12T11:41:20.362Z,12.36
2019-03-12T11:42:20.430Z,12.40
2019-03-12T11:43:20.470Z,13.02
2019-03-12T11:44:20.437Z,13.76
2019-03-12T11:45:31.099Z,14.41
2019-03-12T11:46:20.484Z,14.23
2019-03-12T11:47:20.518Z,14.87
2019-03-12T11:48:20.549Z,15.23
2019-03-12T11:49:20.570Z,15.44
2019-03-12T11:50:20.886Z,14.78
2019-03-12T11:51:20.625Z,13.11
2019-03-12T11:52:20.663Z,12.44
2019-03-12T11:53:20.679Z,12.32
2019-03-12T11:54:20.713Z,11.88
2019-03-12T11:55:20.753Z,11.89
2019-03-12T11:56:20.773Z,11.77
2019-03-12T11:57:20.817Z,11.49
2019-03-12T11:58:20.807Z,11.37
2019-03-12T11:59:20.850Z,11.35
2019-03-12T12:00:20.989Z,11.49
2019-03-12T12:01:20.890Z,12.45
2019-03-12T12:02:20.920Z,13.21
2019-03-12T12:03:20.939Z,13.83
2019-03-12T12:04:20.960Z,13.94
2019-03-12T12:05:20.986Z,12.90
2019-03-12T12:06:21.016Z,12.54
2019-03-12T12:07:21.057Z,12.25
2019-03-12T12:08:21.069Z,12.29
2019-03-12T12:09:21.105Z,12.11
2019-03-12T12:10:21.164Z,11.88
2019-03-12T12:11:21.150Z,11.44
2019-03-12T12:12:21.170Z,11.40
2019-03-12T12:13:21.207Z,11.62
2019-03-12T12:14:21.222Z,12.43
2019-03-12T12:15:21.254Z,13.09
2019-03-12T12:16:21.278Z,13.28
2019-03-12T12:17:21.301Z,13.67
2019-03-12T12:18:21.323Z,13.82
2019-03-12T12:19:21.357Z,13.85
2019-03-12T12:20:29.663Z,14.01
2019-03-12T12:21:21.411Z,13.37
2019-03-12T12:22:21.431Z,13.71
2019-03-12T12:23:21.466Z,13.78
2019-03-12T12:24:21.489Z,13.42
2019-03-12T12:25:21.519Z,12.68
2019-03-12T12:26:21.546Z,12.50
2019-03-12T12:27:21.566Z,12.48
2019-03-12T12:28:21.598Z,12.35
2019-03-12T12:29:21.621Z,12.08
2019-03-12T12:30:21.642Z,11.80
2019-03-12T12:31:21.667Z,11.44
2019-03-12T12:32:21.700Z,11.63
2019-03-12T12:33:21.720Z,11.44
2019-03-12T12:34:21.750Z,11.49
2019-03-12T12:35:21.771Z,11.48
2019-03-12T12:36:21.792Z,11.52
2019-03-12T12:37:21.819Z,11.51
2019-03-12T12:38:21.845Z,11.40
2019-03-12T12:39:21.863Z,11.41
2019-03-12T12:40:21.973Z,11.30
2019-03-12T12:41:21.919Z,11.34
2019-03-12T12:42:21.946Z,11.37
2019-03-12T12:43:21.978Z,11.52
2019-03-12T12:44:21.993Z,11.40
2019-03-12T12:45:22.015Z,11.59
2019-03-12T12:46:22.043Z,11.65
2019-03-12T12:47:22.062Z,11.51
2019-03-12T12:48:22.091Z,11.65
2019-03-12T12:49:22.122Z,11.44
2019-03-12T12:50:22.142Z,11.51
2019-03-12T12:51:22.161Z,11.59
2019-03-12T12:52:22.189Z,11.55
2019-03-12T12:53:22.204Z,11.62
2019-03-12T12:54:22.232Z,11.48
2019-03-12T12:55:22.273Z,11.33
2019-03-12T12:56:22.273Z,11.34
2019-03-12T12:57:22.307Z,11.27
2019-03-12T12:58:22.332Z,11.07
2019-03-12T12:59:22.361Z,11.34
2019-03-12T13:00:22.375Z,11.26
2019-03-12T13:01:22.401Z,11.13
2019-03-12T13:02:22.513Z,10.97
2019-03-12T13:03:22.449Z,11.12
2019-03-12T13:04:22.473Z,10.90
2019-03-12T13:05:22.497Z,10.86
2019-03-12T13:06:22.515Z,10.98
2019-03-12T13:07:22.538Z,10.92
2019-03-12T13:08:22.575Z,10.97
2019-03-12T13:09:22.585Z,10.92
2019-03-12T13:10:22.608Z,10.89
2019-03-12T13:11:22.629Z,11.02
2019-03-12T13:12:22.673Z,11.08
2019-03-12T13:13:22.681Z,10.98